createdAt,value
2023-01-29T00:02:53.330Z,101761.16
2023-01-29T00:08:00.475Z,101748.41
2023-01-29T00:13:07.696Z,101749.35
2023-01-29T00:18:15.068Z,101746.06
2023-01-29T00:23:23.076Z,101735.89
2023-01-29T00:28:30.296Z,101723.96
2023-01-29T00:33:37.851Z,101720.86
2023-01-29T00:38:45.107Z,101724.27
2023-01-29T00:44:10.228Z,101726.39
2023-01-29T00:49:17.416Z,101730.91
2023-01-29T00:54:24.643Z,101735.09
2023-01-29T00:59:32.086Z,101733.85
2023-01-29T01:04:39.211Z,101726.63
2023-01-29T01:10:04.087Z,101716.55
2023-01-29T01:15:13.285Z,101712.09
2023-01-29T01:20:21.305Z,101717.08
2023-01-29T01:25:29.873Z,101716.89
2023-01-29T01:30:37.062Z,101708.90
2023-01-29T01:35:44.147Z,101697.99
2023-01-29T01:40:51.290Z,101702.33
2023-01-29T01:45:58.509Z,101721.36
2023-01-29T01:51:07.865Z,101720.77
2023-01-29T01:56:19.198Z,101721.88
2023-01-29T02:01:29.160Z,101721.95
2023-01-29T02:06:58.276Z,101727.13
2023-01-29T02:12:07.467Z,101715.71
2023-01-29T02:17:17.427Z,101703.66
2023-01-29T02:22:48.346Z,101694.02
2023-01-29T02:28:22.057Z,101690.48
2023-01-29T02:33:41.449Z,101685.08
2023-01-29T02:38:56.590Z,101679.48
2023-01-29T02:44:13.143Z,101672.76
2023-01-29T02:49:27.394Z,101666.67
2023-01-29T02:54:41.654Z,101665.24
2023-01-29T02:59:56.156Z,101647.60
2023-01-29T03:05:10.454Z,101639.88
2023-01-29T03:10:22.934Z,101631.17
2023-01-29T03:15:38.962Z,101614.23
2023-01-29T03:21:04.593Z,101610.71
2023-01-29T03:26:30.525Z,101610.80
2023-01-29T03:31:57.367Z,101598.21
2023-01-29T03:37:09.406Z,101595.52
2023-01-29T03:42:25.872Z,101592.59
2023-01-29T03:47:45.075Z,101586.61
2023-01-29T03:52:58.067Z,101583.25
2023-01-29T03:58:15.540Z,101589.44
2023-01-29T04:03:25.813Z,101584.73
2023-01-29T04:08:39.406Z,101576.92
2023-01-29T04:13:47.347Z,101575.58
2023-01-29T04:18:58.010Z,101567.02
2023-01-29T04:24:16.319Z,101566.80
2023-01-29T04:29:42.013Z,101555.24
2023-01-29T04:35:09.004Z,101540.76
2023-01-29T04:40:27.974Z,101542.09
2023-01-29T04:45:50.124Z,101549.92
2023-01-29T04:51:05.033Z,101552.77
2023-01-29T04:56:18.629Z,101543.45
2023-01-29T05:01:30.184Z,101544.11
2023-01-29T05:06:39.294Z,101549.67
2023-01-29T05:11:49.063Z,101551.84
2023-01-29T05:16:59.791Z,101551.31
2023-01-29T05:22:11.120Z,101539.04
2023-01-29T05:27:40.366Z,101535.23
2023-01-29T05:32:47.586Z,101538.45
2023-01-29T05:37:54.681Z,101541.86
2023-01-29T05:43:02.014Z,101538.42
2023-01-29T05:48:09.477Z,101538.80
2023-01-29T05:53:16.684Z,101537.43
2023-01-29T05:58:24.784Z,101541.10
2023-01-29T06:03:31.938Z,101552.29
2023-01-29T06:08:39.129Z,101551.67
2023-01-29T06:13:48.008Z,101551.52
2023-01-29T06:18:55.149Z,101560.45
2023-01-29T06:24:02.435Z,101564.03
2023-01-29T06:29:09.708Z,101571.05
2023-01-29T06:34:16.968Z,101577.73
2023-01-29T06:39:25.310Z,101570.83
2023-01-29T06:44:32.598Z,101563.95
2023-01-29T06:49:39.852Z,101555.52
2023-01-29T06:54:47.523Z,101541.54
2023-01-29T06:59:54.726Z,101544.15
2023-01-29T07:05:06.082Z,101539.44
2023-01-29T07:10:14.322Z,101538.71
2023-01-29T07:15:21.912Z,101539.73
2023-01-29T07:20:31.783Z,101537.75
2023-01-29T07:25:39.223Z,101536.38
2023-01-29T07:30:46.447Z,101534.31
2023-01-29T07:35:56.505Z,101534.95
2023-01-29T07:41:03.942Z,101533.56
2023-01-29T07:46:14.890Z,101535.81
2023-01-29T07:51:22.116Z,101536.09
2023-01-29T07:56:29.346Z,101532.64
2023-01-29T08:01:36.640Z,101524.23
2023-01-29T08:06:45.531Z,101510.48
2023-01-29T08:11:55.106Z,101501.55
2023-01-29T08:17:02.975Z,101498.12
2023-01-29T08:22:12.621Z,101491.73
2023-01-29T08:27:20.129Z,101477.84
2023-01-29T08:32:27.742Z,101471.45
2023-01-29T08:37:35.254Z,101466.89
2023-01-29T08:42:42.722Z,101461.33
2023-01-29T08:47:51.261Z,101461.60
2023-01-29T08:53:02.570Z,101461.43
2023-01-29T08:58:11.087Z,101458.40
2023-01-29T09:03:18.483Z,101464.26
2023-01-29T09:08:25.410Z,101471.84
2023-01-29T09:13:33.235Z,101471.25
2023-01-29T09:18:40.768Z,101473.24
2023-01-29T09:23:48.046Z,101472.48
2023-01-29T09:28:55.305Z,101470.97
2023-01-29T09:34:02.479Z,101471.75
2023-01-29T09:39:09.723Z,101469.50
2023-01-29T09:44:26.141Z,101470.41
2023-01-29T09:49:37.970Z,101464.04
2023-01-29T09:54:56.300Z,101461.73
2023-01-29T10:00:02.219Z,101450.58
2023-01-29T10:05:24.826Z,101443.84
2023-01-29T10:10:49.700Z,101434.63
2023-01-29T10:16:14.679Z,101424.80
2023-01-29T10:21:43.731Z,101411.63
2023-01-29T10:26:53.916Z,101400.73
2023-01-29T10:32:06.149Z,101390.54
2023-01-29T10:37:21.686Z,101373.63
2023-01-29T10:42:39.683Z,101363.92
2023-01-29T10:48:07.145Z,101358.27
2023-01-29T10:53:31.614Z,101363.58
2023-01-29T10:58:46.824Z,101363.73
2023-01-29T11:04:02.303Z,101353.85
2023-01-29T11:09:20.340Z,101344.40
2023-01-29T11:14:29.903Z,101330.91
2023-01-29T11:19:45.918Z,101333.52
2023-01-29T11:25:11.285Z,101326.80
2023-01-29T11:30:24.764Z,101322.96
2023-01-29T11:35:33.559Z,101325.19
2023-01-29T11:40:43.111Z,101314.02
2023-01-29T11:45:52.207Z,101301.97
2023-01-29T11:51:02.054Z,101293.39
2023-01-29T11:56:21.897Z,101280.16
2023-01-29T12:01:36.287Z,101265.91
2023-01-29T12:06:50.711Z,101271.61
2023-01-29T12:12:18.300Z,101266.13
2023-01-29T12:17:28.399Z,101259.39
2023-01-29T12:22:42.050Z,101254.39
2023-01-29T12:27:54.688Z,101248.10
2023-01-29T12:33:13.578Z,101250.36
2023-01-29T12:38:22.313Z,101249.49
2023-01-29T12:43:34.839Z,101244.13
2023-01-29T12:48:45.371Z,101247.16
2023-01-29T12:53:57.617Z,101243.00
2023-01-29T12:59:15.316Z,101236.77
2023-01-29T13:04:32.181Z,101221.02
2023-01-29T13:09:44.473Z,101221.74
2023-01-29T13:14:57.540Z,101212.38
2023-01-29T13:20:11.871Z,101200.08
2023-01-29T13:25:21.427Z,101193.34
2023-01-29T13:30:33.414Z,101191.61
2023-01-29T13:35:44.335Z,101193.88
2023-01-29T13:40:55.181Z,101194.95
2023-01-29T13:46:11.364Z,101180.59
2023-01-29T13:51:23.300Z,101182.40
2023-01-29T13:56:49.225Z,101177.11
2023-01-29T14:02:21.513Z,101168.16
2023-01-29T14:07:56.019Z,101160.40
2023-01-29T14:13:46.556Z,101155.91
2023-01-29T14:19:06.712Z,101162.34
2023-01-29T14:24:21.068Z,101159.77
2023-01-29T14:29:34.946Z,101167.83
2023-01-29T14:34:51.732Z,101166.84
2023-01-29T14:40:21.391Z,101167.67
2023-01-29T14:45:32.206Z,101156.23
2023-01-29T14:50:47.788Z,101157.13
2023-01-29T14:56:04.242Z,101154.14
2023-01-29T15:01:21.513Z,101157.00
2023-01-29T15:06:39.041Z,101154.54
2023-01-29T15:11:55.235Z,101155.10
2023-01-29T15:17:23.498Z,101143.02
2023-01-29T15:22:33.000Z,101140.77
2023-01-29T15:27:45.206Z,101144.21
2023-01-29T15:32:58.800Z,101142.15
2023-01-29T15:38:15.769Z,101132.21
2023-01-29T15:43:26.194Z,101120.58
2023-01-29T15:48:37.446Z,101112.20
2023-01-29T15:53:49.781Z,101107.64
2023-01-29T15:59:00.423Z,101097.81
2023-01-29T16:04:11.949Z,101091.92
2023-01-29T16:09:24.987Z,101084.40
2023-01-29T16:14:33.054Z,101080.63
2023-01-29T16:19:38.776Z,101080.53
2023-01-29T16:24:48.072Z,101077.30
2023-01-29T16:29:56.092Z,101071.80
2023-01-29T16:35:05.169Z,101061.84
2023-01-29T16:40:26.823Z,101061.95
2023-01-29T16:45:34.323Z,101057.73
2023-01-29T16:50:54.336Z,101048.91
2023-01-29T16:56:12.479Z,101044.63
2023-01-29T17:01:20.409Z,101042.81
2023-01-29T17:06:29.221Z,101039.21
2023-01-29T17:11:39.816Z,101039.62
2023-01-29T17:16:55.047Z,101043.91
2023-01-29T17:22:05.873Z,101038.95
2023-01-29T17:27:19.708Z,101036.71
2023-01-29T17:32:44.417Z,101030.03
2023-01-29T17:37:52.592Z,101017.05
2023-01-29T17:43:00.524Z,101008.27
2023-01-29T17:48:12.953Z,101003.52
2023-01-29T17:53:21.352Z,100992.72
2023-01-29T17:58:32.073Z,100987.67
2023-01-29T18:03:39.493Z,100980.04
2023-01-29T18:08:46.878Z,100977.25
2023-01-29T18:13:54.253Z,100980.64
2023-01-29T18:19:01.942Z,100972.59
2023-01-29T18:24:09.908Z,100965.33
2023-01-29T18:29:17.194Z,100960.03
2023-01-29T18:34:24.693Z,100945.84
2023-01-29T18:39:31.971Z,100929.86
2023-01-29T18:44:39.279Z,100919.07
2023-01-29T18:49:52.837Z,100910.55
2023-01-29T18:55:01.318Z,100899.97
2023-01-29T19:00:24.101Z,100899.28
2023-01-29T19:05:41.831Z,100893.97
2023-01-29T19:10:49.270Z,100886.54
2023-01-29T19:15:59.391Z,100881.67
2023-01-29T19:21:12.340Z,100878.13
2023-01-29T19:26:22.174Z,100864.59
2023-01-29T19:31:32.065Z,100856.27
2023-01-29T19:36:43.217Z,100850.14
2023-01-29T19:41:50.478Z,100843.10
2023-01-29T19:46:57.867Z,100836.58
2023-01-29T19:52:15.211Z,100832.83
2023-01-29T19:57:22.723Z,100826.46
2023-01-29T20:02:33.848Z,100826.37
2023-01-29T20:07:42.771Z,100819.55
2023-01-29T20:13:04.340Z,100811.45
2023-01-29T20:18:13.989Z,100797.13
2023-01-29T20:23:36.724Z,100792.22
2023-01-29T20:28:46.293Z,100786.66
2023-01-29T20:33:53.645Z,100783.11
2023-01-29T20:39:01.016Z,100768.55
2023-01-29T20:44:12.736Z,100757.95
2023-01-29T20:49:21.988Z,100752.52
2023-01-29T20:54:30.365Z,100737.79
2023-01-29T20:59:38.119Z,100727.73
2023-01-29T21:04:49.107Z,100710.95
2023-01-29T21:09:56.264Z,100703.16
2023-01-29T21:15:06.956Z,100691.98
2023-01-29T21:20:15.688Z,100682.39
2023-01-29T21:25:25.604Z,100672.69
2023-01-29T21:30:33.055Z,100661.28
2023-01-29T21:35:40.752Z,100659.31
2023-01-29T21:40:48.101Z,100651.76
2023-01-29T21:46:00.447Z,100638.81
2023-01-29T21:51:08.856Z,100629.27
2023-01-29T21:56:21.730Z,100630.54
2023-01-29T22:01:38.066Z,100616.81
2023-01-29T22:06:45.809Z,100602.33
2023-01-29T22:11:53.278Z,100594.58
2023-01-29T22:17:03.052Z,100586.41
2023-01-29T22:22:13.738Z,100586.95
2023-01-29T22:27:21.215Z,100580.93
2023-01-29T22:32:28.579Z,100563.92
2023-01-29T22:37:35.903Z,100554.00
2023-01-29T22:42:43.296Z,100539.48
2023-01-29T22:47:53.028Z,100529.75
2023-01-29T22:53:04.703Z,100508.15
2023-01-29T22:58:12.187Z,100503.94
2023-01-29T23:03:21.689Z,100494.89
2023-01-29T23:08:29.350Z,100475.84
2023-01-29T23:13:36.798Z,100465.40
2023-01-29T23:18:44.767Z,100447.96
2023-01-29T23:23:54.424Z,100432.96
2023-01-29T23:29:03.979Z,100420.10
2023-01-29T23:34:11.415Z,100403.26
2023-01-29T23:39:18.944Z,100400.50
2023-01-29T23:44:26.151Z,100382.08
2023-01-29T23:49:33.347Z,100361.03
2023-01-29T23:54:40.560Z,100331.48
2023-01-29T23:59:47.765Z,100332.77
